Ann Arbor, MI

7:32 AM EST on November 24, 2014 (GMT -0500)
Willow Run | Change Station
CLOSE
Current Station
Airport
Location: Ypsilanti,
Elevation: 715 ft
Nearby Weather Stations
Active Advisory: Wind Advisory

Elev 715 ft 42.24 °N, 83.53 °W | Updated 4 minutes ago

Overcast
Overcast
58 °F
Feels Like 58 °F
N
17
Wind Variable Wind from SSW
Gusts 25 mph

Today
High -- | Low -- °F
--% Chance of Precip.
Yesterday
High -- | Low -- °F
Precip. -- in
7:36 AM 5:06 PM
Waxing Crescent, 5% visible
Pressure 29.15 in
Visibility 10.0 miles
Clouds Mostly Cloudy 1000 ft
Mostly Cloudy 1500 ft
Overcast 1900 ft
Dew Point 52 °F
Humidity 81%
Rainfall 0.37 in
Snow Depth Not available.
UV 0 out of 12
Pollen .10 out of 12
Air Quality Not available.
Flu Activity Not available.
SPECI KYIP 241228Z AUTO 21015G22KT 10SM BKN010 BKN015 OVC019 14/11 A2915 RMK AO2 RAB1156E11 CIG 008V013 P0000 T01440111 TSNO

More Conditions Fewer Conditions

Pressure 29.15 in
Visibility 10.0 miles
Clouds Mostly Cloudy 1000 ft
Mostly Cloudy 1500 ft
Overcast 1900 ft
Dew Point 52 °F
Humidity 81%
Rainfall 0.37 in
Snow Depth Not available.
UV 0 out of 12
Pollen .10 out of 12
Air Quality Not available.
Flu Activity Not available.
SPECI KYIP 241228Z AUTO 21015G22KT 10SM BKN010 BKN015 OVC019 14/11 A2915 RMK AO2 RAB1156E11 CIG 008V013 P0000 T01440111 TSNO

More Conditions Fewer Conditions

10-Day Weather Forecast

Almanac

Astronomy

Nov. 24, 2014 Rise Set
Actual Time
Civil Twilight
Nautical Twilight
Astronomical Twilight
Moon
Length of Visible Light
Length of Day
Tomorrow will be .
, % of the Moon is Illuminated

Today's Extremes

State Highs State Lows

Community

WunderPhotos

Upload Photos

1,773,319 photos uploaded!

WunderBlogs® & News

Nearby

Air Quality

  Air Quality AQ Index Pollutant
Not available.

Snow Depth

Station Depth Elevation

Earthquake Activity

City Distance Mag. Time & Date
Minimum magnitude displayed is 2.5.

Coastal Water Temperatures

Place Temperature

Nearby Weather Stations